createdAt,value
2022-12-09T00:00:20.864Z,44.50
2022-12-09T00:01:20.989Z,41.70
2022-12-09T00:02:20.952Z,44.80
2022-12-09T00:03:23.884Z,42.90
2022-12-09T00:04:21.104Z,45.30
2022-12-09T00:05:20.953Z,46.80
2022-12-09T00:06:20.834Z,49.40
2022-12-09T00:07:20.785Z,48.80
2022-12-09T00:08:21.053Z,53.90
2022-12-09T00:09:20.843Z,50.50
2022-12-09T00:10:20.845Z,48.70
2022-12-09T00:11:20.869Z,48.10
2022-12-09T00:12:20.793Z,42.20
2022-12-09T00:13:20.718Z,44.30
2022-12-09T00:14:20.944Z,47.70
2022-12-09T00:15:20.934Z,46.40
2022-12-09T00:16:20.996Z,47.80
2022-12-09T00:17:20.814Z,47.40
2022-12-09T00:18:20.923Z,47.70
2022-12-09T00:19:20.657Z,52.20
2022-12-09T00:20:20.905Z,51.50
2022-12-09T00:21:20.674Z,46.90
2022-12-09T00:22:20.653Z,47.10
2022-12-09T00:23:20.693Z,47.90
2022-12-09T00:24:20.636Z,50.50
2022-12-09T00:25:20.591Z,52.40
2022-12-09T00:26:20.632Z,47.80
2022-12-09T00:27:20.672Z,43.10
2022-12-09T00:28:20.817Z,41.90
2022-12-09T00:29:20.547Z,51.50
2022-12-09T00:30:20.552Z,47.90
2022-12-09T00:31:20.655Z,48.30
2022-12-09T00:32:20.894Z,50.10
2022-12-09T00:33:20.577Z,44.70
2022-12-09T00:34:20.510Z,50.30
2022-12-09T00:35:20.497Z,51.80
2022-12-09T00:36:20.765Z,51.40
2022-12-09T00:37:20.576Z,51.30
2022-12-09T00:38:20.463Z,49.20
2022-12-09T00:39:20.505Z,49.90
2022-12-09T00:40:20.453Z,49.10
2022-12-09T00:41:20.686Z,50.80
2022-12-09T00:42:20.728Z,48.90
2022-12-09T00:43:20.416Z,45.50
2022-12-09T00:44:20.635Z,49.60
2022-12-09T00:45:20.387Z,49.50
2022-12-09T00:46:20.452Z,48.50
2022-12-09T00:47:20.488Z,51.10
2022-12-09T00:48:20.388Z,50.50
2022-12-09T00:49:20.349Z,45.10
2022-12-09T00:50:20.599Z,44.50
2022-12-09T00:51:20.403Z,48.40
2022-12-09T00:52:20.598Z,48.50
2022-12-09T00:53:20.532Z,47.10
2022-12-09T00:54:20.437Z,49.60
2022-12-09T00:55:20.489Z,44.20
2022-12-09T00:56:20.400Z,46.80
2022-12-09T00:57:20.308Z,45.60
2022-12-09T00:58:20.383Z,43.70
2022-12-09T00:59:20.518Z,45.30
2022-12-09T01:00:20.375Z,46.60
2022-12-09T01:01:20.325Z,42.50
2022-12-09T01:02:20.620Z,46.00
2022-12-09T01:03:20.323Z,44.90
2022-12-09T01:04:20.596Z,44.10
2022-12-09T01:05:20.333Z,44.10
2022-12-09T01:06:20.283Z,44.20
2022-12-09T01:07:20.370Z,41.80
2022-12-09T01:08:20.453Z,44.30
2022-12-09T01:09:20.322Z,44.40
2022-12-09T01:10:20.359Z,41.40
2022-12-09T01:11:22.007Z,45.10
2022-12-09T01:12:20.204Z,39.50
2022-12-09T01:13:20.143Z,41.20
2022-12-09T01:14:20.139Z,41.30
2022-12-09T01:15:20.257Z,38.80
2022-12-09T01:16:20.496Z,40.80
2022-12-09T01:17:21.269Z,41.60
2022-12-09T01:18:20.118Z,43.50
2022-12-09T01:19:20.321Z,43.60
2022-12-09T01:20:20.227Z,45.10
2022-12-09T01:21:20.279Z,44.60
2022-12-09T01:22:20.449Z,47.40
2022-12-09T01:23:20.079Z,44.60
2022-12-09T01:24:20.004Z,45.50
2022-12-09T01:25:19.972Z,48.00
2022-12-09T01:26:19.998Z,49.20
2022-12-09T01:27:20.301Z,49.90
2022-12-09T01:28:19.973Z,46.80
2022-12-09T01:29:20.128Z,50.20
2022-12-09T01:30:19.952Z,49.20
2022-12-09T01:31:20.174Z,46.50
2022-12-09T01:32:20.017Z,44.70
2022-12-09T01:33:19.906Z,46.10
2022-12-09T01:34:20.275Z,45.10
2022-12-09T01:35:19.915Z,47.40
2022-12-09T01:36:19.902Z,43.90
2022-12-09T01:37:19.874Z,45.80
2022-12-09T01:38:20.206Z,47.90
2022-12-09T01:39:19.993Z,43.60
2022-12-09T01:40:19.861Z,47.50
2022-12-09T01:41:19.934Z,44.90
2022-12-09T01:42:19.879Z,41.80
2022-12-09T01:43:19.813Z,45.80
2022-12-09T01:44:20.184Z,46.90
2022-12-09T01:45:19.910Z,47.40
2022-12-09T01:46:19.901Z,50.50
2022-12-09T01:47:19.802Z,51.10
2022-12-09T01:48:19.904Z,50.20
2022-12-09T01:49:19.743Z,44.90
2022-12-09T01:50:20.101Z,49.90
2022-12-09T01:51:19.896Z,46.20
2022-12-09T01:52:19.759Z,45.00
2022-12-09T01:53:19.725Z,46.40
2022-12-09T01:54:19.854Z,45.90
2022-12-09T01:55:19.710Z,45.40
2022-12-09T01:56:19.902Z,47.80
2022-12-09T01:57:19.718Z,44.20
2022-12-09T01:58:19.851Z,46.40
2022-12-09T01:59:19.795Z,47.20
2022-12-09T02:00:19.780Z,45.50
2022-12-09T02:01:20.001Z,43.30
2022-12-09T02:02:19.714Z,48.40
2022-12-09T02:03:19.888Z,50.90
2022-12-09T02:04:19.863Z,44.40
2022-12-09T02:05:19.687Z,42.30
2022-12-09T02:06:19.699Z,45.00
2022-12-09T02:07:19.849Z,47.60
2022-12-09T02:08:19.690Z,45.60
2022-12-09T02:09:19.929Z,48.30
2022-12-09T02:10:19.882Z,46.30
2022-12-09T02:11:19.532Z,43.80
2022-12-09T02:12:19.773Z,46.30
2022-12-09T02:13:19.797Z,47.90
2022-12-09T02:14:19.499Z,45.70
2022-12-09T02:15:19.697Z,46.20
2022-12-09T02:16:19.553Z,45.90
2022-12-09T02:17:19.859Z,43.90
2022-12-09T02:18:19.686Z,48.80
2022-12-09T02:19:19.800Z,43.70
2022-12-09T02:20:19.469Z,44.10
2022-12-09T02:21:19.439Z,41.50
2022-12-09T02:22:19.732Z,41.10
2022-12-09T02:23:19.476Z,42.40
2022-12-09T02:24:19.567Z,47.60
2022-12-09T02:25:19.371Z,48.10
2022-12-09T02:26:19.647Z,48.20
2022-12-09T02:27:19.521Z,45.80
2022-12-09T02:28:19.386Z,47.00
2022-12-09T02:29:19.617Z,54.40
2022-12-09T02:30:19.521Z,49.40
2022-12-09T02:31:19.710Z,53.50
2022-12-09T02:32:19.487Z,59.00
2022-12-09T02:33:19.385Z,61.90
2022-12-09T02:34:19.299Z,56.50
2022-12-09T02:35:19.539Z,58.10
2022-12-09T02:36:19.360Z,49.30
2022-12-09T02:37:19.586Z,48.80
2022-12-09T02:38:19.284Z,46.60
2022-12-09T02:39:19.249Z,52.80
2022-12-09T02:40:19.493Z,49.40
2022-12-09T02:41:19.585Z,48.40
2022-12-09T02:42:19.309Z,49.80
2022-12-09T02:43:19.582Z,46.90
2022-12-09T02:44:19.394Z,47.10
2022-12-09T02:45:19.210Z,47.10
2022-12-09T02:46:19.192Z,45.50
2022-12-09T02:47:19.621Z,45.30
2022-12-09T02:48:19.233Z,42.60
2022-12-09T02:49:19.569Z,41.30
2022-12-09T02:50:19.132Z,47.70
2022-12-09T02:51:19.391Z,45.80
2022-12-09T02:52:19.461Z,44.60
2022-12-09T02:53:19.139Z,46.20
2022-12-09T02:54:19.474Z,47.70
2022-12-09T02:55:19.363Z,39.70
2022-12-09T02:56:19.307Z,44.10
2022-12-09T02:57:19.958Z,45.20
2022-12-09T02:58:19.063Z,45.90
2022-12-09T02:59:19.189Z,44.50
2022-12-09T03:00:19.094Z,46.90
2022-12-09T03:01:19.113Z,43.00
2022-12-09T03:02:19.157Z,45.60
2022-12-09T03:03:19.333Z,45.00
2022-12-09T03:04:19.066Z,44.40
2022-12-09T03:05:19.097Z,40.60
2022-12-09T03:06:19.192Z,44.40
2022-12-09T03:07:18.963Z,40.90
2022-12-09T03:08:19.253Z,41.60
2022-12-09T03:09:19.047Z,42.10
2022-12-09T03:10:18.929Z,38.80
2022-12-09T03:11:19.361Z,38.60
2022-12-09T03:12:18.916Z,39.70
2022-12-09T03:13:18.941Z,37.20
2022-12-09T03:14:18.928Z,39.30
2022-12-09T03:15:19.227Z,40.20
2022-12-09T03:16:19.188Z,41.20
2022-12-09T03:17:19.034Z,45.60
2022-12-09T03:18:19.246Z,45.20
2022-12-09T03:19:18.860Z,43.00
2022-12-09T03:20:18.946Z,42.50
2022-12-09T03:21:19.459Z,44.80
2022-12-09T03:22:19.006Z,41.50
2022-12-09T03:23:19.083Z,38.70
2022-12-09T03:24:18.986Z,43.80
2022-12-09T03:25:18.893Z,42.00
2022-12-09T03:26:18.921Z,42.90
2022-12-09T03:27:18.849Z,41.80
2022-12-09T03:28:18.928Z,40.80
2022-12-09T03:29:18.763Z,42.80
2022-12-09T03:30:18.745Z,44.20
2022-12-09T03:31:19.116Z,39.20
2022-12-09T03:32:18.813Z,38.80
2022-12-09T03:33:18.850Z,35.70
2022-12-09T03:34:18.876Z,37.00
2022-12-09T03:35:18.776Z,35.80
2022-12-09T03:36:19.000Z,36.70
2022-12-09T03:37:18.945Z,38.00
2022-12-09T03:38:18.653Z,37.80
2022-12-09T03:39:18.649Z,40.00
2022-12-09T03:40:19.112Z,39.00
2022-12-09T03:41:18.690Z,35.70
2022-12-09T03:42:18.617Z,34.40
2022-12-09T03:43:18.603Z,39.80
2022-12-09T03:44:18.583Z,38.60
2022-12-09T03:45:18.971Z,37.60
2022-12-09T03:46:18.667Z,37.60
2022-12-09T03:47:18.625Z,40.40
2022-12-09T03:48:18.577Z,34.40
2022-12-09T03:49:18.550Z,34.50
2022-12-09T03:50:18.703Z,40.20
2022-12-09T03:51:18.887Z,39.60
2022-12-09T03:52:18.920Z,41.70
2022-12-09T03:53:18.561Z,39.00
2022-12-09T03:54:18.478Z,42.50
2022-12-09T03:55:18.659Z,38.40
2022-12-09T03:56:18.745Z,43.10
2022-12-09T03:57:19.513Z,44.10
2022-12-09T03:58:18.596Z,44.70
2022-12-09T03:59:18.645Z,44.50
2022-12-09T04:00:18.443Z,43.90
2022-12-09T04:01:18.518Z,44.50
2022-12-09T04:02:18.522Z,44.70
2022-12-09T04:03:18.887Z,43.30
2022-12-09T04:04:18.735Z,46.20
2022-12-09T04:05:18.384Z,42.30
2022-12-09T04:06:27.763Z,42.50
2022-12-09T04:07:18.982Z,43.40
2022-12-09T04:08:19.006Z,40.60
2022-12-09T04:09:18.388Z,43.40
2022-12-09T04:10:19.506Z,44.10
2022-12-09T04:11:18.463Z,40.80
2022-12-09T04:12:18.993Z,39.30
2022-12-09T04:13:18.614Z,41.10
2022-12-09T04:14:26.206Z,39.30
2022-12-09T04:15:20.044Z,39.20
2022-12-09T04:16:18.675Z,38.00
2022-12-09T04:17:18.346Z,43.80
2022-12-09T04:18:19.002Z,40.90
2022-12-09T04:19:18.332Z,40.40
2022-12-09T04:20:20.933Z,45.50
2022-12-09T04:21:19.584Z,42.60
2022-12-09T04:22:18.936Z,46.10
2022-12-09T04:23:18.977Z,40.40
2022-12-09T04:24:19.038Z,42.40
2022-12-09T04:25:18.942Z,42.60
2022-12-09T04:26:32.486Z,38.70
2022-12-09T04:27:18.995Z,39.70
2022-12-09T04:28:22.320Z,42.10
2022-12-09T04:29:19.002Z,42.80
2022-12-09T04:30:19.149Z,37.60
2022-12-09T04:31:19.839Z,38.50
2022-12-09T04:32:32.897Z,38.90
2022-12-09T04:33:18.951Z,34.30
2022-12-09T04:34:19.231Z,41.50
2022-12-09T04:35:19.163Z,40.20
2022-12-09T04:36:18.967Z,44.60
2022-12-09T04:37:20.249Z,42.00
2022-12-09T04:38:18.497Z,42.70
2022-12-09T04:39:18.188Z,37.30
2022-12-09T04:40:23.772Z,36.00
2022-12-09T04:41:19.046Z,39.10
2022-12-09T04:42:19.997Z,38.80
2022-12-09T04:43:19.186Z,39.60
2022-12-09T04:44:18.932Z,39.90
2022-12-09T04:45:19.016Z,38.70
2022-12-09T04:46:20.342Z,42.50
2022-12-09T04:47:18.060Z,44.70
2022-12-09T04:48:19.136Z,41.50
2022-12-09T04:49:19.297Z,39.90
2022-12-09T04:50:18.482Z,38.70
2022-12-09T04:51:18.445Z,37.60
2022-12-09T04:52:22.152Z,40.90
2022-12-09T04:53:18.448Z,41.40
2022-12-09T04:54:18.027Z,39.70
2022-12-09T04:55:18.070Z,40.30
2022-12-09T04:56:17.892Z,41.70
2022-12-09T04:57:19.578Z,41.80
2022-12-09T04:58:17.882Z,39.80
2022-12-09T04:59:18.726Z,42.60
2022-12-09T05:00:18.534Z,38.00
2022-12-09T05:02:59.009Z,39.60
2022-12-09T05:03:59.521Z,40.10
2022-12-09T05:05:20.707Z,39.80
2022-12-09T05:05:59.167Z,40.80
2022-12-09T05:06:59.403Z,42.20
2022-12-09T05:07:58.981Z,37.80
2022-12-09T05:08:59.789Z,39.80
2022-12-09T05:09:59.638Z,39.10
2022-12-09T05:10:59.656Z,38.80
2022-12-09T05:11:59.925Z,41.30
2022-12-09T05:13:00.453Z,39.10
2022-12-09T05:13:59.179Z,40.60
2022-12-09T05:14:59.593Z,41.70
2022-12-09T05:15:59.162Z,38.80
2022-12-09T05:17:00.756Z,39.30
2022-12-09T05:17:58.917Z,40.60
2022-12-09T05:19:00.698Z,44.10
2022-12-09T05:19:58.727Z,43.50
2022-12-09T05:20:59.563Z,39.50
2022-12-09T05:21:59.885Z,38.70
2022-12-09T05:23:00.855Z,38.80
2022-12-09T05:23:58.953Z,41.40
2022-12-09T05:24:59.515Z,41.50
2022-12-09T05:25:59.819Z,38.60
2022-12-09T05:26:58.729Z,37.10
2022-12-09T05:27:59.535Z,41.20
2022-12-09T05:28:59.616Z,35.90
2022-12-09T05:29:58.927Z,38.80
2022-12-09T05:30:59.057Z,40.60
2022-12-09T05:31:58.907Z,39.70
2022-12-09T05:32:59.880Z,38.40
2022-12-09T05:33:58.688Z,37.90
2022-12-09T05:35:00.896Z,40.80
2022-12-09T05:36:00.117Z,39.30
2022-12-09T05:36:59.532Z,38.80
2022-12-09T05:37:58.500Z,40.00
2022-12-09T05:38:58.644Z,39.30
2022-12-09T05:39:58.781Z,38.10
2022-12-09T05:40:59.050Z,41.30
2022-12-09T05:42:00.101Z,40.90
2022-12-09T05:42:59.038Z,37.70
2022-12-09T05:43:58.499Z,38.50
2022-12-09T05:44:59.266Z,38.30
2022-12-09T05:45:59.479Z,40.90
2022-12-09T05:46:58.907Z,38.10
2022-12-09T05:47:58.583Z,40.10
2022-12-09T05:48:58.554Z,44.90
2022-12-09T05:50:01.806Z,39.40
2022-12-09T05:50:58.840Z,41.80
2022-12-09T05:51:59.088Z,38.10
2022-12-09T05:52:58.681Z,39.00
2022-12-09T05:53:58.417Z,39.70
2022-12-09T05:54:59.113Z,38.20
2022-12-09T05:55:58.544Z,38.40
2022-12-09T05:56:58.362Z,40.00
2022-12-09T05:57:58.572Z,39.20
2022-12-09T05:58:59.500Z,39.70
2022-12-09T05:59:59.002Z,38.90
2022-12-09T06:00:59.198Z,39.20
2022-12-09T06:02:01.374Z,39.40
2022-12-09T06:02:58.607Z,37.80
2022-12-09T06:04:03.058Z,39.30
2022-12-09T06:04:59.428Z,36.70
2022-12-09T06:05:58.749Z,38.40
2022-12-09T06:06:58.718Z,37.80
2022-12-09T06:08:02.359Z,38.10
2022-12-09T06:08:58.737Z,38.30
2022-12-09T06:09:59.487Z,41.40
2022-12-09T06:10:58.397Z,39.80
2022-12-09T06:11:59.372Z,42.60
2022-12-09T06:12:59.017Z,39.60
2022-12-09T06:13:59.043Z,40.10
2022-12-09T06:14:59.594Z,39.80
2022-12-09T06:15:59.401Z,43.60
2022-12-09T06:16:58.206Z,42.70
2022-12-09T06:18:00.363Z,45.30
2022-12-09T06:18:58.571Z,47.70
2022-12-09T06:19:58.666Z,47.20
2022-12-09T06:20:58.458Z,45.70
2022-12-09T06:21:58.410Z,44.30
2022-12-09T06:22:58.252Z,45.80
2022-12-09T06:23:59.328Z,46.20
2022-12-09T06:24:59.021Z,46.00
2022-12-09T06:26:00.296Z,42.80
2022-12-09T06:26:58.017Z,47.60
2022-12-09T06:27:58.593Z,49.30
2022-12-09T06:28:58.607Z,45.00
2022-12-09T06:29:58.442Z,45.40
2022-12-09T06:30:58.645Z,39.80
2022-12-09T06:31:58.893Z,43.00
2022-12-09T06:32:58.401Z,44.90
2022-12-09T06:33:59.722Z,45.60
2022-12-09T06:34:58.889Z,47.00
2022-12-09T06:35:58.908Z,46.00
2022-12-09T06:36:58.307Z,44.30
2022-12-09T06:37:58.148Z,48.40
2022-12-09T06:39:00.409Z,47.90
2022-12-09T06:39:58.866Z,49.00
2022-12-09T06:40:58.307Z,46.60
2022-12-09T06:41:57.938Z,46.70
2022-12-09T06:42:58.658Z,48.40
2022-12-09T06:43:57.884Z,48.90
2022-12-09T06:44:58.794Z,45.90
2022-12-09T06:45:58.896Z,48.70
2022-12-09T06:46:58.545Z,52.30
2022-12-09T06:47:58.831Z,49.70
2022-12-09T06:48:58.717Z,49.30
2022-12-09T06:50:04.584Z,47.70
2022-12-09T06:50:58.075Z,48.60
2022-12-09T06:51:58.283Z,48.50
2022-12-09T06:52:58.579Z,48.50
2022-12-09T06:53:58.107Z,47.90
2022-12-09T06:54:57.742Z,53.80
2022-12-09T06:55:57.931Z,48.40
2022-12-09T06:56:57.828Z,45.50
2022-12-09T06:57:58.653Z,45.70
2022-12-09T06:58:58.178Z,47.90
2022-12-09T06:59:58.759Z,46.70
2022-12-09T07:00:58.728Z,46.10
2022-12-09T07:01:57.918Z,43.00
2022-12-09T07:02:57.838Z,50.00
2022-12-09T07:03:58.851Z,46.90
2022-12-09T07:04:58.203Z,44.30
2022-12-09T07:05:57.913Z,51.20
2022-12-09T07:06:59.780Z,51.50
2022-12-09T07:07:57.821Z,49.60
2022-12-09T07:08:58.327Z,52.20
2022-12-09T07:09:59.564Z,50.40
2022-12-09T07:10:58.062Z,47.30
2022-12-09T07:11:58.759Z,50.40
2022-12-09T07:12:58.713Z,50.20
2022-12-09T07:13:57.684Z,47.10
2022-12-09T07:14:58.838Z,51.10
2022-12-09T07:15:57.615Z,45.70
2022-12-09T07:16:57.572Z,44.40
2022-12-09T07:17:59.357Z,49.90
2022-12-09T07:18:58.227Z,46.90
2022-12-09T07:20:03.401Z,51.20
2022-12-09T07:20:57.528Z,52.80
2022-12-09T07:21:58.070Z,49.40
2022-12-09T07:22:58.177Z,47.00
2022-12-09T07:23:57.774Z,50.70
2022-12-09T07:25:04.484Z,52.50
2022-12-09T07:25:58.550Z,48.90
2022-12-09T07:27:03.245Z,52.10
2022-12-09T07:27:58.264Z,50.70
2022-12-09T07:28:57.365Z,56.10
2022-12-09T07:29:59.117Z,50.20
2022-12-09T07:30:58.121Z,49.40
2022-12-09T07:31:57.839Z,46.60
2022-12-09T07:32:58.396Z,50.40
2022-12-09T07:33:57.683Z,51.80
2022-12-09T07:34:57.327Z,46.20
2022-12-09T07:36:01.277Z,57.10
2022-12-09T07:36:57.328Z,50.10
2022-12-09T07:37:58.073Z,48.10
2022-12-09T07:38:57.369Z,50.30
2022-12-09T07:39:58.349Z,53.30
2022-12-09T07:40:58.408Z,52.40
2022-12-09T07:42:00.856Z,51.10
2022-12-09T07:42:59.909Z,54.10
2022-12-09T07:43:58.006Z,56.50
2022-12-09T07:44:58.417Z,56.00
2022-12-09T07:45:57.389Z,55.20
2022-12-09T07:47:00.249Z,46.50
2022-12-09T07:47:58.337Z,45.80
2022-12-09T07:48:58.634Z,50.80
2022-12-09T07:50:06.362Z,44.90
2022-12-09T07:50:58.303Z,48.30
2022-12-09T07:51:57.461Z,50.00
2022-12-09T07:52:57.292Z,52.30
2022-12-09T07:53:58.104Z,48.70
2022-12-09T07:54:57.573Z,44.20
2022-12-09T07:55:58.016Z,45.40
2022-12-09T07:57:00.601Z,50.60
2022-12-09T07:57:57.174Z,46.50
2022-12-09T07:59:00.112Z,48.00
2022-12-09T07:59:57.059Z,48.70
2022-12-09T08:00:57.862Z,47.00
2022-12-09T08:02:01.078Z,42.90
2022-12-09T08:03:00.022Z,44.00
2022-12-09T08:03:57.249Z,39.70
2022-12-09T08:04:57.876Z,40.40
2022-12-09T08:05:57.794Z,40.80
2022-12-09T08:06:57.230Z,39.10
2022-12-09T08:07:59.083Z,39.20
2022-12-09T08:08:57.469Z,43.40
2022-12-09T08:09:58.834Z,40.80
2022-12-09T08:10:59.412Z,41.80
2022-12-09T08:12:00.203Z,37.40
2022-12-09T08:12:57.457Z,35.70
2022-12-09T08:13:57.056Z,39.50
2022-12-09T08:14:57.867Z,40.60
2022-12-09T08:15:57.613Z,36.80
2022-12-09T08:16:58.017Z,36.30
2022-12-09T08:17:57.339Z,39.30
2022-12-09T08:18:58.128Z,38.30
2022-12-09T08:19:58.889Z,34.50
2022-12-09T08:20:57.371Z,33.60
2022-12-09T08:21:56.941Z,35.20
2022-12-09T08:22:57.906Z,34.20
2022-12-09T08:24:00.650Z,34.80
2022-12-09T08:24:58.071Z,34.30
2022-12-09T08:25:58.191Z,33.00
2022-12-09T08:26:57.181Z,34.10
2022-12-09T08:27:57.852Z,33.60
2022-12-09T08:28:58.065Z,34.20
2022-12-09T08:29:59.209Z,37.00
2022-12-09T08:30:57.343Z,42.80
2022-12-09T08:31:57.762Z,41.80
2022-12-09T08:32:57.223Z,36.30
2022-12-09T08:33:58.583Z,43.90
2022-12-09T08:34:56.884Z,42.40
2022-12-09T08:35:56.993Z,38.10
2022-12-09T08:37:01.952Z,48.70
2022-12-09T08:37:57.064Z,43.40
2022-12-09T08:38:56.822Z,41.30
2022-12-09T08:39:57.123Z,41.50
2022-12-09T08:40:59.276Z,41.40
2022-12-09T08:41:56.981Z,43.40
2022-12-09T08:42:56.747Z,43.00
2022-12-09T08:43:57.019Z,37.30
2022-12-09T08:45:01.809Z,41.60
2022-12-09T08:45:58.738Z,42.70
2022-12-09T08:46:57.830Z,40.80
2022-12-09T08:47:57.079Z,37.90
2022-12-09T08:49:00.238Z,41.70
2022-12-09T08:49:56.747Z,43.80
2022-12-09T08:51:01.269Z,43.70
2022-12-09T08:51:57.503Z,39.10
2022-12-09T08:52:59.063Z,43.50
2022-12-09T08:53:57.236Z,41.90
2022-12-09T08:54:59.282Z,42.90
2022-12-09T08:55:56.553Z,44.60
2022-12-09T08:57:01.126Z,41.20
2022-12-09T08:57:58.028Z,41.10
2022-12-09T08:58:57.267Z,44.30
2022-12-09T08:59:57.160Z,40.80
2022-12-09T09:00:56.801Z,39.30
2022-12-09T09:02:00.192Z,36.50
2022-12-09T09:02:57.415Z,41.60
2022-12-09T09:03:56.738Z,45.50
2022-12-09T09:04:56.640Z,40.50
2022-12-09T09:05:57.035Z,39.30
2022-12-09T09:06:57.962Z,41.90
2022-12-09T09:07:56.870Z,43.80
2022-12-09T09:08:56.716Z,38.20
2022-12-09T09:10:00.524Z,42.90
2022-12-09T09:10:56.816Z,38.30
2022-12-09T09:11:56.638Z,39.60
2022-12-09T09:12:57.518Z,39.80
2022-12-09T09:13:57.332Z,39.20
2022-12-09T09:14:57.358Z,38.90
2022-12-09T09:16:01.159Z,40.90
2022-12-09T09:16:57.723Z,39.40
2022-12-09T09:17:57.387Z,39.40
2022-12-09T09:18:56.478Z,38.80
2022-12-09T09:20:00.187Z,38.10
2022-12-09T09:21:00.592Z,36.40
2022-12-09T09:21:57.084Z,38.00
2022-12-09T09:23:02.827Z,36.90
2022-12-09T09:23:57.370Z,37.50
2022-12-09T09:25:00.923Z,39.00
2022-12-09T09:25:57.366Z,37.90
2022-12-09T09:26:56.367Z,37.30
2022-12-09T09:28:00.378Z,36.80
2022-12-09T09:28:57.194Z,33.70
2022-12-09T09:29:56.309Z,36.60
2022-12-09T09:31:23.966Z,38.60
2022-12-09T09:31:56.784Z,35.00
2022-12-09T09:32:56.207Z,38.30
2022-12-09T09:33:56.756Z,41.70
2022-12-09T09:34:56.219Z,40.30
2022-12-09T09:35:57.823Z,39.50
2022-12-09T09:36:57.760Z,38.90
2022-12-09T09:37:56.786Z,36.90
2022-12-09T09:38:57.677Z,39.40
2022-12-09T09:39:56.244Z,39.40
2022-12-09T09:40:56.154Z,37.50
2022-12-09T09:41:56.379Z,37.90
2022-12-09T09:42:56.826Z,41.00
2022-12-09T09:43:56.320Z,35.70
2022-12-09T09:44:56.317Z,33.30
2022-12-09T09:45:57.039Z,30.40
2022-12-09T09:46:56.571Z,29.60
2022-12-09T09:47:58.417Z,31.70
2022-12-09T09:48:57.466Z,33.90
2022-12-09T09:49:57.376Z,34.20
2022-12-09T09:50:56.399Z,31.80
2022-12-09T09:51:56.335Z,31.60
2022-12-09T09:52:58.531Z,34.40
2022-12-09T09:53:56.380Z,35.40
2022-12-09T09:54:57.874Z,32.50
2022-12-09T09:55:59.942Z,35.00
2022-12-09T09:56:59.426Z,32.50
2022-12-09T09:57:56.903Z,33.50
2022-12-09T09:58:55.934Z,31.90
2022-12-09T10:00:04.994Z,33.30
2022-12-09T10:00:56.018Z,34.40
2022-12-09T10:02:04.037Z,33.30
2022-12-09T10:02:57.030Z,31.10
2022-12-09T10:03:56.339Z,35.10
2022-12-09T10:04:56.736Z,32.50
2022-12-09T10:05:57.492Z,32.80
2022-12-09T10:06:56.189Z,34.00
2022-12-09T10:07:57.119Z,33.30
2022-12-09T10:08:57.410Z,35.50
2022-12-09T10:09:56.647Z,35.80
2022-12-09T10:10:56.121Z,34.80
2022-12-09T10:11:56.390Z,33.40
2022-12-09T10:13:02.772Z,35.30
2022-12-09T10:13:57.324Z,34.30
2022-12-09T10:14:56.228Z,33.80
2022-12-09T10:15:55.884Z,37.80
2022-12-09T10:16:56.296Z,35.20
2022-12-09T10:17:56.557Z,35.50
2022-12-09T10:18:58.652Z,35.80
2022-12-09T10:19:56.259Z,35.80
2022-12-09T10:20:56.682Z,34.70
2022-12-09T10:21:55.742Z,34.30
2022-12-09T10:22:55.848Z,38.40
2022-12-09T10:23:55.810Z,38.90
2022-12-09T10:24:59.223Z,35.50
2022-12-09T10:25:56.723Z,33.40
2022-12-09T10:26:57.759Z,35.60
2022-12-09T10:28:00.472Z,33.70
2022-12-09T10:28:56.212Z,36.40
2022-12-09T10:29:59.336Z,32.80
2022-12-09T10:30:59.108Z,35.30
2022-12-09T10:31:55.530Z,37.60
2022-12-09T10:32:55.667Z,40.30
2022-12-09T10:33:56.551Z,37.30
2022-12-09T10:34:56.103Z,34.10
2022-12-09T10:35:56.273Z,36.10
2022-12-09T10:36:59.156Z,34.70
2022-12-09T10:37:55.765Z,32.20
2022-12-09T10:38:55.529Z,36.20
2022-12-09T10:39:56.260Z,37.10
2022-12-09T10:40:57.851Z,34.90
2022-12-09T10:41:59.165Z,31.70
2022-12-09T10:42:58.101Z,32.30
2022-12-09T10:43:56.559Z,36.10
2022-12-09T10:44:56.069Z,31.90
2022-12-09T10:46:55.838Z,34.90
2022-12-09T10:47:57.378Z,34.80
2022-12-09T10:48:59.168Z,31.60
2022-12-09T10:49:55.526Z,33.90
2022-12-09T10:50:56.159Z,37.10
2022-12-09T10:51:58.092Z,34.30
2022-12-09T10:52:55.469Z,34.20
2022-12-09T10:53:55.905Z,37.50
2022-12-09T10:54:56.102Z,36.30
2022-12-09T10:55:55.508Z,35.20
2022-12-09T10:56:59.443Z,33.90
2022-12-09T10:57:55.672Z,34.00
2022-12-09T10:58:56.530Z,35.70
2022-12-09T10:59:56.145Z,31.30
2022-12-09T11:00:55.567Z,32.90
2022-12-09T11:01:58.613Z,32.90
2022-12-09T11:02:56.730Z,33.00
2022-12-09T11:03:59.888Z,34.20
2022-12-09T11:04:56.324Z,34.30
2022-12-09T11:05:56.367Z,34.20
2022-12-09T11:06:59.885Z,31.10
2022-12-09T11:07:57.229Z,33.40
2022-12-09T11:08:56.655Z,34.50
2022-12-09T11:09:55.588Z,33.40
2022-12-09T11:10:55.392Z,31.70
2022-12-09T11:11:56.218Z,29.90
2022-12-09T11:12:56.127Z,34.20
2022-12-09T11:13:58.976Z,34.40
2022-12-09T11:14:55.649Z,33.70
2022-12-09T11:15:59.682Z,33.00
2022-12-09T11:16:55.940Z,35.40
2022-12-09T11:17:56.837Z,30.10
2022-12-09T11:18:58.548Z,33.20
2022-12-09T11:19:57.688Z,30.80
2022-12-09T11:20:55.301Z,30.10
2022-12-09T11:21:55.455Z,31.60
2022-12-09T11:22:56.232Z,33.70
2022-12-09T11:24:02.561Z,33.10
2022-12-09T11:24:57.599Z,32.40
2022-12-09T11:25:57.698Z,28.20
2022-12-09T11:26:55.643Z,29.90
2022-12-09T11:27:56.170Z,29.10
2022-12-09T11:28:55.247Z,26.40
2022-12-09T11:29:59.655Z,26.90
2022-12-09T11:31:27.730Z,28.50
2022-12-09T11:32:00.811Z,30.80
2022-12-09T11:32:55.524Z,31.20
2022-12-09T11:34:00.350Z,31.50
2022-12-09T11:34:55.209Z,28.90
2022-12-09T11:35:55.770Z,29.40
2022-12-09T11:36:54.797Z,29.30
2022-12-09T11:37:55.709Z,32.00
2022-12-09T11:38:55.552Z,29.60
2022-12-09T11:39:54.844Z,33.60
2022-12-09T11:40:54.758Z,30.30
2022-12-09T11:41:55.571Z,31.30
2022-12-09T11:42:54.731Z,32.60
2022-12-09T11:43:56.560Z,34.80
2022-12-09T11:44:56.150Z,31.70
2022-12-09T11:45:55.607Z,31.90
2022-12-09T11:46:54.783Z,34.00
2022-12-09T11:48:25.669Z,36.60
2022-12-09T11:48:54.675Z,35.40
2022-12-09T11:49:54.783Z,30.70
2022-12-09T11:50:54.676Z,35.80
2022-12-09T11:51:56.577Z,33.40
2022-12-09T11:52:57.095Z,33.70
2022-12-09T11:54:04.498Z,31.40
2022-12-09T11:54:57.154Z,33.90
2022-12-09T11:55:59.161Z,32.00
2022-12-09T11:56:55.073Z,30.80
2022-12-09T11:57:54.612Z,30.30
2022-12-09T11:58:55.559Z,29.40
2022-12-09T11:59:57.191Z,28.30
2022-12-09T12:00:55.065Z,30.50
2022-12-09T12:01:55.142Z,29.20
2022-12-09T12:02:55.128Z,31.30
2022-12-09T12:03:58.161Z,27.90
2022-12-09T12:04:55.078Z,32.80
2022-12-09T12:09:56.714Z,28.40
2022-12-09T12:10:01.648Z,34.60
2022-12-09T12:11:03.057Z,31.20
2022-12-09T12:12:02.560Z,29.40
2022-12-09T12:13:02.598Z,29.60
2022-12-09T12:14:03.053Z,33.40
2022-12-09T12:15:02.090Z,32.20
2022-12-09T12:16:01.576Z,30.40
2022-12-09T12:17:02.715Z,28.30
2022-12-09T12:18:04.169Z,27.30
2022-12-09T12:19:02.567Z,28.10
2022-12-09T12:20:01.547Z,26.60
2022-12-09T12:21:02.067Z,30.40
2022-12-09T12:22:01.534Z,32.20
2022-12-09T12:23:01.640Z,33.50
2022-12-09T12:24:02.088Z,28.80
2022-12-09T12:25:01.513Z,30.70
2022-12-09T12:26:01.476Z,28.10
2022-12-09T12:27:01.481Z,28.60
2022-12-09T12:28:02.079Z,30.50
2022-12-09T12:29:07.135Z,31.00
2022-12-09T12:30:02.953Z,30.70
2022-12-09T12:31:02.155Z,31.40
2022-12-09T12:32:02.123Z,29.30
2022-12-09T12:34:23.625Z,33.90
2022-12-09T12:35:02.074Z,33.00
2022-12-09T12:36:02.093Z,35.30
2022-12-09T12:37:03.759Z,32.00
2022-12-09T12:38:01.576Z,29.50
2022-12-09T12:40:11.352Z,30.70
2022-12-09T12:40:16.317Z,30.40
2022-12-09T12:41:16.318Z,32.70
2022-12-09T12:42:18.739Z,29.40
2022-12-09T12:43:16.290Z,31.30
2022-12-09T12:44:17.571Z,32.20
2022-12-09T12:45:17.079Z,28.90
2022-12-09T12:46:16.280Z,33.40
2022-12-09T12:47:17.589Z,35.80
2022-12-09T12:48:16.285Z,39.30
2022-12-09T12:49:19.926Z,33.10
2022-12-09T12:50:16.269Z,35.60
2022-12-09T12:51:16.193Z,37.40
2022-12-09T12:53:16.186Z,27.10
2022-12-09T12:54:16.168Z,30.30
2022-12-09T12:55:17.075Z,31.40
2022-12-09T12:56:17.116Z,37.10
2022-12-09T12:57:16.135Z,30.50
2022-12-09T12:58:16.102Z,30.30
2022-12-09T12:59:17.103Z,33.10
2022-12-09T13:00:17.075Z,33.20